Weather

SUNSHINE COAST  TAF / METAR

TAF YBSU 192307Z 2000/2012
32008KT CAVOK
FM200100 07010KT 9999 FEW030
FM200400 04012KT 9999 -SHRA SCT030 SCT040
FM200900 05010KT 9999 SCT015 SCT040
TEMPO 2009/2012 9999 NSW BKN015
PROB30 TEMPO 2004/2009 VRB20G35KT 2000 TSRA BKN010 SCT030CB
RMK
T 29 31 28 26 Q 1012 1010 1009 1010

METAR YBSU 200430Z AUTO 02009KT 9999 // SCT013 BKN091 BKN110 27/23
Q1009 RMK RF00.0/000.0

DOQ Compas Heading

Area Briefing TAF / METAR for 40

* AMBERLEY YAMB

TAF AMD YAMB 192240Z 2000/2018
VRB05KT 9999 FEW045
FM200400 04010KT CAVOK
FM200700 04016KT 9999 SCT035
FM200900 09010KT 9999 SCT020 BKN030
FM201400 12005KT 9999 FEW015 BKN025
TEMPO 2010/2018 9999 NSW BKN015
PROB30 TEMPO 2009/2012 VRB25G35KT 3000 TSRA BKN015 SCT030CB
RMK
T 29 33 31 26 Q 1012 1009 1007 1010

METAR YAMB 200430Z 27003KT 9999 FEW076TCU BKN245 34/15 Q1008
RMK RF00.0/000.0 CB TOPS TO N

ARCHERFIELD YBAF

TAF YBAF 192305Z 2000/2012
26005KT 9999 FEW020
FM200400 34008KT 9999 FEW040
FM200500 04012KT 9999 SCT035
FM200900 11005KT 9999 -SHRA BKN020
TEMPO 2010/2012 8000 -SHRA BKN010
RMK
T 29 32 30 25 Q 1012 1010 1009 1011

METAR YBAF 200430Z AUTO 05011KT 9999 // NCD 33/22 Q1008 RMK
RF00.0/000.0

* BRISBANE YBBN

TAF COR YBBN 192330Z 2000/2106
22005KT CAVOK
FM200100 04012KT 9999 FEW035
FM200400 06012KT 9999 -SHRA SCT030 SCT040
FM200900 06012KT 9999 SCT012 BKN020
FM201200 14010KT 9999 SCT010 BKN020
FM201800 20005KT 9999 SCT010 BKN020
FM210000 14010KT 9999 -SHRA FEW020 SCT030
FM210400 11013KT 9999 -SHRA FEW020 SCT040
TEMPO 2009/2022 9999 NSW BKN010
PROB30 TEMPO 2102/2106 VRB20G35KT 2000 TSRA BKN015 FEW050CB
RMK
T 29 30 28 26 Q 1012 1010 1009 1011

METAR YBBN 200430Z 07009KT 9999 FEW040TCU BKN280 28/23 Q1009
RMK RF00.0/000.0

BUNDABERG YBUD

TAF AMD YBUD 200329Z 2003/2012
01012KT 9999 SCT030
FM200400 01014KT 9999 -SHRA SCT030 SCT040
PROB30 TEMPO 2005/2012 VRB20G35KT 2000 TSRA BKN010 SCT030CB
RMK
T 32 30 26 24 Q 1010 1009 1011 1012

METAR YBUD 200430Z AUTO 36010KT 9999 // NCD 30/22 Q1010 RMK
RF00.0/000.0

EMERALD YEML

TAF YEML 192312Z 2000/2012
02005KT 9999 FEW035
FM200200 09006KT CAVOK
PROB30 TEMPO 2003/2009 VRB25G40KT 2000 TSRA BKN015 SCT050CB
RMK
T 30 33 34 30 Q 1013 1011 1009 1010

METAR YEML 200430Z AUTO 35004KT 9999 // NCD 35/18 Q1009
RMK RF00.0/000.0

GAYNDAH YGAY

Nil current TAF.

METAR YGAY 200430Z AUTO 29002KT //// // ////// 34/12 Q1009 RMK
RF00.0/000.0

GLADSTONE YGLA

TAF AMD YGLA 192312Z 2000/2012
33005KT 9999 FEW030
FM200200 02008KT 9999 FEW030
FM200900 36005KT 9999 FEW020
PROB30 TEMPO 2005/2008 VRB20G40KT 2000 TSRA BKN015 SCT050CB
RMK
T 30 31 30 27 Q 1013 1011 1009 1011

METAR YGLA 200430Z AUTO 05011KT 9999 // NCD 31/23 Q1009 RMK
RF00.0/000.2

GOLD COAST YBCG

TAF YBCG 192325Z 2000/2024
07010KT 9999 FEW035
FM200400 15014KT 9999 -SHRA SCT020 BKN030
FM201000 20008KT 9999 -SHRA SCT012 BKN020 OVC030
FM202200 17010KT 9999 FEW015 SCT025
INTER 2006/2014 3000 SHRA BKN010
TEMPO 2014/2022 9999 NSW BKN010
PROB30 TEMPO 2005/2012 VRB25G40KT 1000 TSRA BKN010 SCT025CB
RMK
T 28 29 27 25 Q 1012 1011 1010 1012

METAR YBCG 200430Z AUTO 11011KT 9999 // SCT033 28/21 Q1010 RMK
RF00.0/000.0

GOONDIWINDI YGDI

Nil current TAF.

METAR/SPECI observations are not generated for this location.

HERVEY BAY YHBA

TAF AMD YHBA 200314Z 2003/2012
01012KT 9999 SCT030
FM200400 01014KT 9999 -SHRA SCT030 SCT040
PROB30 TEMPO 2007/2012 VRB20G35KT 2000 TSRA BKN010 SCT030CB
RMK
T 29 29 26 26 Q 1011 1010 1011 1012

METAR YHBA 200430Z AUTO 01013KT 9999 // NCD 29/22 Q1010 RMK
RF00.0/000.0

KINGAROY YKRY

TAF AMD YKRY 192206Z 1922/2008
27007KT CAVOK
RMK
T 21 30 32 29 Q 1014 1014 1011 1011

METAR YKRY 200430Z AUTO 23007KT 170V320 9999 // NCD 33/12 Q1011 RMK
RF00.0/000.0

MARYBOROUGH YMYB

TAF AMD YMYB 200428Z 2004/2014
02012KT 9999 FEW030
FM200900 01005KT 9999 FEW020
FM201200 01005KT 9999 BKN020
PROB30 TEMPO 2005/2010 VRB20G35KT 2000 TSRA BKN010 SCT030CB
RMK
T 32 28 25 23 Q 1009 1010 1011 1012

METAR YMYB 200430Z AUTO 01008KT 9999 // NCD 30/22 Q1009
RMK RF00.0/000.0

* OAKEY YBOK

TAF YBOK 192331Z 2000/2014
27011KT 9999 FEW040
FM200800 21007KT CAVOK
FM201100 10010KT 9999 SCT020
RMK
T 29 33 34 27 Q 1014 1012 1010 1011

TTF METAR YBOK 200430Z 26013KT CAVOK 32/10 Q1011
RMK RF00.0/000.0
NOSIG

ROCKHAMPTON YBRK

TAF AMD YBRK 192313Z 1923/2024
VRB05KT 9999 FEW020
FM200200 04008KT 9999 FEW045
FM201000 03005KT 9999 FEW020
FM201400 14004KT 9999 FEW015
FM202200 10005KT 9999 SCT020
PROB30 TEMPO 2004/2009 VRB20G40KT 2000 TSRA BKN015 SCT060CB
RMK
T 28 34 33 29 Q 1013 1011 1009 1010

METAR YBRK 200400Z 05012KT CAVOK 33/20 Q1009 RMK RF00.0/000.0


ROMA YROM

TAF YROM 200018Z 2002/2014
22008KT CAVOK
FM201000 11005KT CAVOK
RMK
T 33 34 31 25 Q 1013 1010 1010 1012

METAR YROM 200430Z AUTO 18012KT 9999 // NCD 36/03 Q1010 RMK
RF00.0/000.0

ST GEORGE YSGE

TAF YSGE 200018Z 2002/2011
20012KT CAVOK
FM200800 15005KT CAVOK
RMK
T 33 35 32 27 Q 1012 1009 1010 1012

METAR YSGE 200430Z AUTO 21011KT 9999 // NCD 35/05 Q1010 RMK
RF00.0/000.0

SUNSHINE COAST YBSU

TAF YBSU 192307Z 2000/2012
32008KT CAVOK
FM200100 07010KT 9999 FEW030
FM200400 04012KT 9999 -SHRA SCT030 SCT040
FM200900 05010KT 9999 SCT015 SCT040
TEMPO 2009/2012 9999 NSW BKN015
PROB30 TEMPO 2004/2009 VRB20G35KT 2000 TSRA BKN010 SCT030CB
RMK
T 29 31 28 26 Q 1012 1010 1009 1010

METAR YBSU 200430Z AUTO 02009KT 9999 // SCT013 BKN091 BKN110 27/23
Q1009 RMK RF00.0/000.0

THANGOOL YTNG

TAF YTNG 200028Z 2002/2014
27006KT CAVOK
FM200800 03008KT CAVOK
PROB30 TEMPO 2004/2009 VRB25G40KT 2000 TSRA BKN015 SCT060CB
RMK
T 33 33 30 26 Q 1012 1010 1010 1012

METAR YTNG 200430Z AUTO 33006KT 9999 // NCD 35/16 Q1009
RMK RF00.0/000.0

TOOWOOMBA YTWB

TAF YTWB 200018Z 2002/2014
30008KT CAVOK
FM200400 25012KT CAVOK
FM200900 08014KT 9999 SCT010
TEMPO 2010/2014 BKN010
RMK
T 28 30 25 21 Q 1015 1012 1013 1016

METAR YTWB 200430Z AUTO 28011KT 9999 // SCT081 BKN099 29/10 Q1013
RMK RF00.0/000.0

WELLCAMP (BRISBANE WEST) YBWW

TAF YBWW 200018Z 2002/2014
30008KT CAVOK
FM200400 25012KT CAVOK
FM201000 10010KT 9999 SCT015
TEMPO 2012/2014 9999 NSW BKN015
RMK
T 31 32 28 23 Q 1012 1010 1010 1013

METAR YBWW 200430Z AUTO 23012KT //// // SCT086 33/13 Q1010 RMK
RF00.0/000.0

* Note: The latest TTF automatically supersedes the TAF for the 3 hr validity of the TTF, unless otherwise specified in the TTF.

DOQLD Area Briefing Map


Whole of Australia